Airfield :
LOGIN :

Register | Disclaimer

   EN    FR    IT 

 










Legend :    VFR   Marginal VFR   IFR   Intensive IFR   Very Intensive IFR
Visi :
Ceiling :
>= 8 km
>= 3000ft
5 to 8 km
1000 to 3000 ft
1500m to 5 km
500 to 1000 ft
800 to 1500m
200 to 500 ft
< 800m
< 200 ft
Symbols :   Thunderstorms  Fog  Heavy snow  Heavy precipitations  Wind > 20 kt
SIGMETs :     Misc.  Thunderstorms  Icing  Turbulence  Mountain Waves  Volcanic Ashes






- Airport Elevation : 512 ft
- IATA code : URO


LFOP - Rouen Vallée de Seine

CURRENT METAR :
  • 131830Z AUTO 35009KT 320V030 CAVOK 21/08 Q1021 NOSIG

EXPIRED METARs :
  • 131800Z AUTO 34009KT 320V020 CAVOK 21/07 Q1022 NOSIG
  • 131730Z AUTO 35009KT CAVOK 21/06 Q1022 NOSIG
  • 131700Z AUTO 36010KT 310V030 CAVOK 22/07 Q1022 NOSIG
  • 131630Z AUTO 35009KT 310V040 CAVOK 23/07 Q1022 NOSIG

TAF TAF LFOP
Valid from the 13 at 18:00 until the 14 at 18:00 UTC


131700Z 1318/1418 36010KT CAVOK
BECMG 1319/1322 27007KT
BECMG 1404/1406 4000 RA BKN005 OVC010
TEMPO 1407/1414 2000 DZRA OVC003
BECMG 1413/1415 33010KT 9999 NSW BKN017
ATIS : +33 2 35 80 80 34
Met : +33 2 32 86 52 80



MET'MAP, your aeronautical weather chart ! - Copyright ORBIFLY December 2007 - Disclaimer

ORBIFLY MET'MAP TEAM :

Programming & Development : Alexandra Zaïnal
Concept & original design : Baudouin d'Aumeries
Assistance for programming : Marc-Olivier Méhu
Technical & hardware support : Manuel Goepfert

Contact : metmap@orbifly.com




SOURCES & CREDITS :

   NOAA